Current Weather

Kolda

Kolda, Senegal (GOGK)

Report from: Friday, June 21, 2024 10:00 PM GMT
Current time: Friday, June 21, 2024 10:58 PM GMT

Nearby weather – Weather history – Daily summaries
Weather forecast

Temperature31.0°C (87.8°F)
Heat index39.1°C (102.4°F)
Dew point26.0°C (78.8°F)
Winds 4 kts (2.1 m/s, 4.6 mph) West (280°)
Clouds Sky clear
Altimeter29.83 in.Hg (1010 mB)
Relative humidity75 %
Density altitude2,386 ft. (727 m)
Remarks Ceiling and visibility OK
Flight conditions Visual Meteorological Conditions
Raw dataGOGK 212200Z 28004KT CAVOK 31/26 Q1010
An error has occurred. This application may no longer respond until reloaded. Reload 🗙